Time;durP1;ratioP1;P1;durP2;ratioP2;P2;SDS_P1;SDS_P2;PMS_P1;PMS_P2;Temp;Humidity;BMP_temperature;BMP_pressure;BME280_temperature;BME280_humidity;BME280_pressure;Samples;Min_cycle;Max_cycle;Signal;HPM_P1;HPM_P2
2022/08/16 00:00:34;;;;;;;4.30;3.90;;;21.20;99.00;;;;;;5054962;28;20565;-57
2022/08/16 00:03:02;;;;;;;4.70;3.83;;;21.20;99.00;;;;;;5054916;28;20476;-57
2022/08/16 00:05:30;;;;;;;5.70;3.50;;;21.10;99.00;;;;;;5055148;28;20550;-57
2022/08/16 00:07:58;;;;;;;4.00;3.70;;;21.30;99.30;;;;;;5055360;28;20477;-57
2022/08/16 00:10:27;;;;;;;3.80;3.50;;;21.30;99.20;;;;;;5055053;28;20484;-57
2022/08/16 00:12:55;;;;;;;4.10;3.70;;;21.40;98.90;;;;;;5055054;28;20446;-57
2022/08/16 00:15:24;;;;;;;4.80;4.40;;;21.50;99.00;;;;;;5055223;28;20449;-57
2022/08/16 00:17:53;;;;;;;6.23;4.50;;;21.40;98.50;;;;;;5054219;28;20867;-57
2022/08/16 00:20:22;;;;;;;3.93;3.63;;;21.30;98.40;;;;;;5054619;28;21069;-57
2022/08/16 00:22:50;;;;;;;4.20;3.80;;;21.30;98.30;;;;;;5054764;28;20572;-57
2022/08/16 00:25:19;;;;;;;5.90;4.40;;;21.30;98.50;;;;;;5054988;28;20532;-57
2022/08/16 00:27:47;;;;;;;4.30;3.90;;;21.30;98.20;;;;;;5054886;28;20445;-57
2022/08/16 00:30:16;;;;;;;4.40;4.00;;;21.50;97.80;;;;;;5054681;28;20469;-57
2022/08/16 00:32:47;;;;;;;4.73;4.33;;;21.30;98.10;;;;;;5054868;28;20441;-56
2022/08/16 00:35:19;;;;;;;4.03;3.73;;;21.20;98.50;;;;;;5054471;28;20417;-58
2022/08/16 00:37:48;;;;;;;6.50;3.53;;;21.10;98.70;;;;;;5054696;28;20439;-57
2022/08/16 00:40:19;;;;;;;4.33;4.00;;;21.00;99.30;;;;;;5054529;28;20588;-57
2022/08/16 00:42:46;;;;;;;5.10;3.73;;;20.90;99.60;;;;;;5054368;28;20969;-57
2022/08/16 00:45:27;;;;;;;8.70;4.40;;;20.80;99.60;;;;;;5054183;28;20481;-57
2022/08/16 00:47:55;;;;;;;5.33;4.00;;;20.80;99.70;;;;;;5054470;28;20429;-57
2022/08/16 00:50:28;;;;;;;4.57;3.93;;;20.90;99.80;;;;;;5034439;28;20466;-57
2022/08/16 00:52:55;;;;;;;4.80;4.40;;;21.00;99.70;;;;;;5034844;28;20423;-57
2022/08/16 00:55:25;;;;;;;4.30;3.90;;;21.20;99.60;;;;;;5034079;28;20931;-58
2022/08/16 00:57:56;;;;;;;8.60;4.10;;;21.20;99.60;;;;;;5034172;28;20426;-57
2022/08/16 01:00:27;;;;;;;4.40;4.00;;;21.20;99.70;;;;;;5033861;28;20970;-57
2022/08/16 01:02:56;;;;;;;4.20;3.90;;;21.20;99.90;;;;;;5034375;28;20477;-57
2022/08/16 01:05:26;;;;;;;4.83;4.40;;;21.10;99.90;;;;;;5034013;28;20488;-57
2022/08/16 01:07:53;;;;;;;4.73;4.33;;;21.10;99.90;;;;;;5033857;28;20450;-57
2022/08/16 01:10:22;;;;;;;4.50;4.20;;;21.10;99.90;;;;;;5034024;28;20512;-57
2022/08/16 01:12:49;;;;;;;5.80;5.30;;;21.10;99.90;;;;;;5033873;28;20438;-56
2022/08/16 01:15:17;;;;;;;4.40;4.00;;;21.00;99.90;;;;;;5034055;28;20557;-57
2022/08/16 01:17:46;;;;;;;5.50;5.00;;;21.00;99.90;;;;;;5034155;28;20807;-57
2022/08/16 01:20:16;;;;;;;4.50;4.10;;;21.00;99.90;;;;;;5033973;28;20474;-57
2022/08/16 01:22:54;;;;;;;5.47;4.97;;;20.80;99.90;;;;;;5033838;28;20488;-57
2022/08/16 01:25:28;;;;;;;5.67;5.03;;;20.80;99.90;;;;;;5033909;28;20430;-57
2022/08/16 01:27:58;;;;;;;5.27;4.43;;;20.70;99.90;;;;;;5033364;28;20963;-57
2022/08/16 01:30:28;;;;;;;5.77;4.83;;;20.70;99.90;;;;;;5033441;28;20979;-57
2022/08/16 01:33:01;;;;;;;4.73;4.33;;;20.60;99.90;;;;;;5033459;28;20953;-56
2022/08/16 01:35:32;;;;;;;5.60;5.00;;;20.50;99.90;;;;;;5033723;28;20473;-57
2022/08/16 01:38:16;;;;;;;5.57;5.17;;;20.60;99.90;;;;;;5033342;28;20565;-57
2022/08/16 01:40:44;;;;;;;4.73;4.20;;;20.60;99.90;;;;;;5033540;28;20909;-58
2022/08/16 01:43:12;;;;;;;5.70;4.40;;;20.70;99.90;;;;;;5033322;28;21053;-57
2022/08/16 01:45:39;;;;;;;4.53;4.10;;;20.70;99.90;;;;;;5033276;28;20457;-57
2022/08/16 01:48:06;;;;;;;5.77;5.17;;;20.70;99.90;;;;;;5034706;28;20452;-56
2022/08/16 01:50:35;;;;;;;5.00;4.60;;;20.60;99.90;;;;;;5053155;28;20469;-56
2022/08/16 01:53:02;;;;;;;4.77;4.37;;;20.60;99.90;;;;;;5053359;28;20537;-57
2022/08/16 01:55:30;;;;;;;8.30;4.83;;;20.50;99.90;;;;;;5053329;28;20449;-57
2022/08/16 01:58:03;;;;;;;5.30;4.80;;;20.60;99.90;;;;;;5053110;28;20503;-56
2022/08/16 02:00:30;;;;;;;5.33;4.80;;;20.50;99.90;;;;;;5052862;28;20492;-57
2022/08/16 02:02:58;;;;;;;5.73;5.10;;;20.50;99.90;;;;;;5052874;28;20988;-57
2022/08/16 02:05:25;;;;;;;4.90;4.43;;;20.50;99.90;;;;;;5053031;28;20458;-58
2022/08/16 02:07:52;;;;;;;4.33;3.93;;;20.40;99.90;;;;;;5052991;28;20453;-57
2022/08/16 02:10:19;;;;;;;5.00;4.60;;;20.50;99.90;;;;;;5053182;28;20779;-57
2022/08/16 02:12:47;;;;;;;6.50;4.90;;;20.50;99.90;;;;;;5053187;28;20442;-57
2022/08/16 02:15:16;;;;;;;4.87;4.47;;;20.50;99.90;;;;;;5053242;28;20445;-57
2022/08/16 02:17:43;;;;;;;5.00;4.50;;;20.50;99.90;;;;;;5053084;28;20789;-57
2022/08/16 02:20:11;;;;;;;4.80;4.20;;;20.60;99.90;;;;;;5052946;28;20465;-58
2022/08/16 02:22:39;;;;;;;4.80;4.33;;;20.50;99.90;;;;;;5052790;28;20445;-57
2022/08/16 02:25:10;;;;;;;4.50;4.10;;;20.60;99.90;;;;;;5053034;28;20449;-57
2022/08/16 02:27:38;;;;;;;5.50;5.00;;;20.60;99.90;;;;;;5053038;28;20544;-58
2022/08/16 02:30:11;;;;;;;4.70;4.20;;;20.70;99.90;;;;;;5052678;28;20449;-57
2022/08/16 02:32:39;;;;;;;6.80;4.13;;;20.80;99.90;;;;;;5053118;28;20453;-57
2022/08/16 02:35:07;;;;;;;4.27;3.93;;;20.90;99.90;;;;;;5052910;28;20453;-57
2022/08/16 02:37:34;;;;;;;5.60;4.73;;;20.90;99.90;;;;;;5052680;28;20442;-57
2022/08/16 02:40:01;;;;;;;5.30;4.80;;;20.90;99.90;;;;;;5053911;28;20560;-57
2022/08/16 02:42:28;;;;;;;5.23;4.80;;;21.00;99.90;;;;;;5056860;28;20852;-57
2022/08/16 02:44:56;;;;;;;4.97;4.47;;;21.10;99.90;;;;;;5056750;28;20485;-57
2022/08/16 02:47:23;;;;;;;5.77;4.80;;;21.20;99.90;;;;;;5056585;28;20539;-57
2022/08/16 02:49:51;;;;;;;5.63;4.57;;;21.20;99.90;;;;;;5056260;28;20480;-57
2022/08/16 02:52:19;;;;;;;5.03;4.63;;;21.00;99.90;;;;;;5056367;28;20464;-57
2022/08/16 02:54:46;;;;;;;6.77;4.70;;;21.00;99.90;;;;;;5056766;28;20477;-57
2022/08/16 02:57:13;;;;;;;4.87;4.47;;;20.80;99.90;;;;;;5056529;28;20528;-57
2022/08/16 02:59:41;;;;;;;5.47;4.77;;;20.70;99.90;;;;;;5056298;28;20434;-57
2022/08/16 03:02:08;;;;;;;4.73;4.33;;;20.70;99.90;;;;;;5056183;28;20826;-58
2022/08/16 03:04:36;;;;;;;4.30;3.80;;;20.70;99.90;;;;;;5056345;28;20485;-57
2022/08/16 03:07:06;;;;;;;4.77;4.37;;;20.60;99.90;;;;;;5056204;28;20437;-57
2022/08/16 03:09:33;;;;;;;4.97;4.57;;;20.60;99.90;;;;;;5056139;28;20457;-57
2022/08/16 03:12:00;;;;;;;5.07;4.60;;;20.50;99.90;;;;;;5056256;28;20469;-58
2022/08/16 03:14:28;;;;;;;4.90;4.50;;;20.50;99.90;;;;;;5055957;28;20445;-57
2022/08/16 03:16:55;;;;;;;5.40;4.43;;;20.50;99.90;;;;;;5056370;28;20477;-58
2022/08/16 03:19:22;;;;;;;5.50;4.70;;;20.70;99.90;;;;;;5056228;28;20531;-57
2022/08/16 03:21:49;;;;;;;5.73;4.63;;;20.70;99.90;;;;;;5055765;28;21050;-57
2022/08/16 03:24:18;;;;;;;7.10;5.13;;;20.70;99.90;;;;;;5056110;28;20565;-57
2022/08/16 03:26:45;;;;;;;5.20;4.70;;;20.70;99.90;;;;;;5055836;28;20475;-58
2022/08/16 03:29:12;;;;;;;5.77;5.27;;;20.60;99.90;;;;;;5055652;28;20535;-58
2022/08/16 03:31:40;;;;;;;4.23;3.83;;;20.70;99.90;;;;;;5055724;28;20461;-58
2022/08/16 03:34:07;;;;;;;5.67;5.13;;;20.70;99.90;;;;;;5055686;28;20942;-57
2022/08/16 03:36:34;;;;;;;7.03;4.70;;;20.80;99.90;;;;;;5055525;28;20488;-57
2022/08/16 03:39:02;;;;;;;4.70;4.20;;;20.80;99.90;;;;;;5055453;28;20456;-57
2022/08/16 03:41:30;;;;;;;5.23;4.83;;;20.80;99.90;;;;;;5056018;28;20477;-57
2022/08/16 03:43:57;;;;;;;5.80;4.67;;;20.80;99.90;;;;;;5055358;28;20563;-57
2022/08/16 03:46:25;;;;;;;4.83;4.10;;;20.80;99.90;;;;;;5055693;28;20449;-57
2022/08/16 03:48:52;;;;;;;5.13;4.63;;;20.90;99.90;;;;;;5055369;28;20473;-57
2022/08/16 03:51:19;;;;;;;4.57;4.17;;;21.00;99.90;;;;;;5055146;28;20473;-57
2022/08/16 03:53:47;;;;;;;7.20;5.30;;;21.00;99.90;;;;;;5055533;28;20447;-58
2022/08/16 03:56:14;;;;;;;5.57;5.07;;;20.80;99.90;;;;;;5055283;28;20929;-58
2022/08/16 03:58:42;;;;;;;6.00;4.63;;;20.60;99.90;;;;;;5055153;28;20445;-57
2022/08/16 04:01:10;;;;;;;5.60;4.70;;;20.50;99.90;;;;;;5054988;28;20552;-57
2022/08/16 04:03:37;;;;;;;5.27;4.77;;;20.50;99.90;;;;;;5055049;28;20519;-57
2022/08/16 04:06:06;;;;;;;5.70;4.90;;;20.30;99.90;;;;;;5055222;28;20538;-57
2022/08/16 04:08:33;;;;;;;5.17;4.60;;;20.30;99.90;;;;;;5054848;28;20973;-58
2022/08/16 04:11:02;;;;;;;5.80;4.93;;;20.30;99.90;;;;;;5054905;28;20568;-58
2022/08/16 04:13:30;;;;;;;6.60;4.70;;;20.20;99.90;;;;;;5054957;28;20528;-58
2022/08/16 04:16:00;;;;;;;5.00;4.60;;;20.10;99.90;;;;;;5055090;28;20842;-57
2022/08/16 04:18:27;;;;;;;5.67;5.03;;;20.20;99.90;;;;;;5055071;28;20437;-57
2022/08/16 04:20:55;;;;;;;6.47;4.93;;;20.10;99.90;;;;;;5055018;28;20560;-57
2022/08/16 04:23:22;;;;;;;7.00;5.60;;;20.20;99.90;;;;;;5054727;28;20455;-57
2022/08/16 04:25:49;;;;;;;7.97;4.90;;;20.20;99.90;;;;;;5054873;28;20808;-58
2022/08/16 04:28:17;;;;;;;8.13;5.20;;;20.20;99.90;;;;;;5054725;28;20430;-57
2022/08/16 04:30:44;;;;;;;5.60;5.10;;;20.20;99.90;;;;;;5054604;28;20472;-57
2022/08/16 04:33:13;;;;;;;6.50;5.30;;;20.30;99.90;;;;;;5054387;28;20574;-58
2022/08/16 04:35:40;;;;;;;6.03;5.37;;;20.50;99.90;;;;;;5054797;28;20536;-58
2022/08/16 04:38:07;;;;;;;6.13;5.20;;;20.40;99.90;;;;;;5054361;28;20926;-57
2022/08/16 04:40:34;;;;;;;6.03;5.43;;;20.30;99.90;;;;;;5054450;28;20483;-57
2022/08/16 04:43:02;;;;;;;5.63;5.13;;;20.30;99.90;;;;;;5054406;28;20460;-57
2022/08/16 04:45:29;;;;;;;5.40;4.90;;;20.50;99.90;;;;;;5054381;28;20485;-57
2022/08/16 04:47:58;;;;;;;6.10;4.67;;;20.50;99.90;;;;;;5054400;28;20541;-57
2022/08/16 04:50:28;;;;;;;5.80;4.80;;;20.50;99.90;;;;;;5034244;28;20466;-58
2022/08/16 04:52:55;;;;;;;7.73;5.20;;;20.70;99.90;;;;;;5034519;28;20450;-57
2022/08/16 04:55:26;;;;;;;10.40;5.10;;;20.60;99.90;;;;;;5034034;28;20490;-58
2022/08/16 04:57:55;;;;;;;5.47;4.97;;;20.90;99.90;;;;;;5034314;28;20497;-57
2022/08/16 05:00:25;;;;;;;7.53;4.57;;;20.90;99.90;;;;;;5034147;28;20505;-57
2022/08/16 05:02:54;;;;;;;5.07;4.60;;;21.20;99.90;;;;;;5033679;28;20537;-57
2022/08/16 05:05:22;;;;;;;5.00;4.50;;;21.20;99.90;;;;;;5034040;28;20494;-57
2022/08/16 05:07:51;;;;;;;6.50;5.03;;;20.90;99.90;;;;;;5034230;28;20485;-57
2022/08/16 05:10:18;;;;;;;5.40;4.80;;;20.90;99.90;;;;;;5033827;28;20474;-57
2022/08/16 05:12:46;;;;;;;7.47;4.60;;;20.80;99.90;;;;;;5033991;28;20456;-57
2022/08/16 05:15:14;;;;;;;5.30;4.90;;;21.00;99.90;;;;;;5033636;28;20951;-57
2022/08/16 05:17:41;;;;;;;4.83;4.50;;;21.10;99.90;;;;;;5033978;28;20515;-58
2022/08/16 05:20:10;;;;;;;7.47;5.27;;;21.10;99.90;;;;;;5033599;28;20569;-57
2022/08/16 05:22:38;;;;;;;8.10;5.20;;;21.20;99.90;;;;;;5033774;28;20450;-58
2022/08/16 05:25:09;;;;;;;5.10;4.63;;;21.20;99.90;;;;;;5033583;28;20481;-57
2022/08/16 05:27:36;;;;;;;5.47;4.97;;;21.10;99.90;;;;;;5033523;28;21016;-58
2022/08/16 05:30:05;;;;;;;5.70;5.20;;;21.10;99.90;;;;;;5033597;28;20537;-57
2022/08/16 05:32:33;;;;;;;5.30;4.90;;;21.00;99.90;;;;;;5033740;28;20868;-57
2022/08/16 05:35:00;;;;;;;4.83;4.17;;;20.90;99.90;;;;;;5033204;28;20541;-57
2022/08/16 05:37:27;;;;;;;4.80;4.30;;;21.10;99.90;;;;;;5033513;28;20534;-57
2022/08/16 05:39:54;;;;;;;4.37;4.07;;;21.20;99.90;;;;;;5033594;28;20808;-57
2022/08/16 05:42:23;;;;;;;6.80;5.00;;;21.10;99.90;;;;;;5033121;28;20541;-57
2022/08/16 05:44:50;;;;;;;6.33;5.73;;;21.20;99.90;;;;;;5033362;28;20513;-57
2022/08/16 05:47:17;;;;;;;4.90;4.50;;;21.20;99.90;;;;;;5033148;28;20456;-57
2022/08/16 05:49:44;;;;;;;7.90;4.60;;;21.40;99.90;;;;;;5048026;28;20954;-57
2022/08/16 05:52:12;;;;;;;4.60;4.20;;;21.40;99.90;;;;;;5052960;28;20534;-57
2022/08/16 05:54:39;;;;;;;5.80;5.20;;;21.50;99.90;;;;;;5052911;28;20445;-57
2022/08/16 05:57:06;;;;;;;4.80;4.40;;;21.40;99.90;;;;;;5053241;28;20543;-57
2022/08/16 05:59:35;;;;;;;5.73;5.23;;;21.40;99.90;;;;;;5053131;28;20907;-57
2022/08/16 06:02:02;;;;;;;4.90;4.40;;;21.50;99.90;;;;;;5052522;28;20523;-57
2022/08/16 06:04:29;;;;;;;4.80;4.50;;;21.40;99.90;;;;;;5052833;28;20563;-57
2022/08/16 06:06:57;;;;;;;5.07;4.57;;;21.30;99.90;;;;;;5053070;28;20457;-57
2022/08/16 06:09:25;;;;;;;5.80;5.20;;;21.50;99.90;;;;;;5052797;28;20528;-56
2022/08/16 06:11:52;;;;;;;4.77;4.37;;;21.40;99.90;;;;;;5052662;28;20461;-57
2022/08/16 06:14:20;;;;;;;7.20;4.63;;;21.60;99.90;;;;;;5051388;28;20489;-57
2022/08/16 06:16:48;;;;;;;8.20;4.60;;;21.70;99.90;;;;;;5052891;28;20449;-57
2022/08/16 06:19:15;;;;;;;4.63;4.20;;;21.70;99.90;;;;;;5052841;28;20487;-57
2022/08/16 06:21:42;;;;;;;5.90;4.90;;;22.00;99.90;;;;;;5052537;28;20465;-58
2022/08/16 06:24:10;;;;;;;5.87;5.23;;;22.00;99.90;;;;;;5052441;28;20528;-58
2022/08/16 06:26:37;;;;;;;5.60;4.57;;;22.00;99.90;;;;;;5052781;28;21005;-57
2022/08/16 06:29:04;;;;;;;7.07;5.63;;;22.00;99.90;;;;;;5052216;28;20514;-58
2022/08/16 06:31:31;;;;;;;9.93;6.00;;;21.90;99.90;;;;;;5052489;28;20483;-57
2022/08/16 06:34:00;;;;;;;8.50;7.07;;;21.80;99.90;;;;;;5052193;28;20488;-58
2022/08/16 06:36:28;;;;;;;7.20;5.20;;;22.00;99.90;;;;;;5052621;28;20429;-57
2022/08/16 06:38:55;;;;;;;5.70;4.10;;;21.90;99.90;;;;;;5052554;28;20539;-58
2022/08/16 06:41:22;;;;;;;6.30;5.30;;;22.10;99.90;;;;;;5052362;28;20564;-57
2022/08/16 06:43:49;;;;;;;7.73;4.77;;;22.00;99.90;;;;;;5052737;28;20450;-57
2022/08/16 06:46:25;;;;;;;5.07;4.67;;;22.00;99.90;;;;;;5051980;28;20477;-57
2022/08/16 06:48:53;;;;;;;5.60;4.47;;;22.20;99.90;;;;;;5051935;28;20542;-57
2022/08/16 06:51:21;;;;;;;9.23;5.90;;;22.30;99.90;;;;;;5052295;28;20830;-57
2022/08/16 06:53:49;;;;;;;6.00;4.93;;;22.20;99.90;;;;;;5052361;28;20822;-57
2022/08/16 06:56:16;;;;;;;5.83;4.20;;;;;;;;;;5051981;28;21036;-57
2022/08/16 06:58:43;;;;;;;6.60;5.50;;;22.60;99.90;;;;;;5052193;28;20449;-57
2022/08/16 07:01:11;;;;;;;5.90;5.30;;;22.60;99.90;;;;;;5052206;28;20484;-57
2022/08/16 07:03:38;;;;;;;5.30;4.80;;;22.50;99.90;;;;;;5052284;28;20532;-57
2022/08/16 07:06:06;;;;;;;5.90;5.10;;;22.80;99.90;;;;;;5052234;28;20491;-57
2022/08/16 07:08:35;;;;;;;7.33;4.57;;;22.80;99.90;;;;;;5052483;28;20445;-57
2022/08/16 07:11:02;;;;;;;5.20;4.23;;;22.70;99.90;;;;;;5051594;28;21110;-56
2022/08/16 07:13:30;;;;;;;9.10;6.10;;;22.90;99.90;;;;;;5051949;28;20953;-57
2022/08/16 07:15:58;;;;;;;6.30;5.77;;;22.90;99.90;;;;;;5052144;28;20441;-58
2022/08/16 07:18:25;;;;;;;7.67;6.23;;;22.90;99.90;;;;;;5052313;28;20445;-57
2022/08/16 07:20:53;;;;;;;5.30;4.67;;;23.00;99.90;;;;;;5051766;28;20978;-57
2022/08/16 07:23:21;;;;;;;5.60;4.90;;;23.00;99.90;;;;;;5052069;28;20944;-57
2022/08/16 07:25:49;;;;;;;4.63;4.20;;;23.20;99.90;;;;;;5052916;28;20495;-58
2022/08/16 07:28:18;;;;;;;5.73;5.20;;;23.30;99.90;;;;;;5055650;28;20446;-57
2022/08/16 07:30:46;;;;;;;4.70;4.30;;;23.30;99.90;;;;;;5055773;28;20827;-57
2022/08/16 07:33:16;;;;;;;6.13;5.40;;;23.40;99.90;;;;;;5055184;28;20958;-57
2022/08/16 07:35:43;;;;;;;6.70;5.97;;;23.50;99.90;;;;;;5055583;28;20449;-57
2022/08/16 07:38:11;;;;;;;6.03;5.43;;;23.50;99.90;;;;;;5055416;28;20933;-57
2022/08/16 07:40:38;;;;;;;5.00;4.50;;;23.70;99.90;;;;;;5055532;28;20477;-57
2022/08/16 07:43:07;;;;;;;6.40;5.90;;;23.70;99.90;;;;;;5055524;28;20484;-58
2022/08/16 07:45:34;;;;;;;6.23;5.53;;;23.80;99.90;;;;;;5054981;28;20477;-57
2022/08/16 07:48:01;;;;;;;6.50;5.10;;;23.90;99.90;;;;;;5055338;28;20533;-57
2022/08/16 07:50:29;;;;;;;5.57;5.07;;;24.10;99.90;;;;;;5055034;28;20473;-57
2022/08/16 07:52:56;;;;;;;8.53;5.27;;;24.20;99.90;;;;;;5054909;28;20517;-57
2022/08/16 07:55:23;;;;;;;6.20;5.60;;;24.10;99.90;;;;;;5054940;28;20997;-57
2022/08/16 07:57:50;;;;;;;6.73;4.93;;;24.00;99.90;;;;;;5055273;28;20491;-62
2022/08/16 08:00:19;;;;;;;6.30;5.57;;;24.10;99.90;;;;;;5054837;28;20503;-57
2022/08/16 08:02:46;;;;;;;7.10;6.43;;;24.10;99.90;;;;;;5055120;28;20541;-57
2022/08/16 08:05:14;;;;;;;9.57;6.10;;;24.10;99.90;;;;;;5054818;28;20481;-57
2022/08/16 08:07:41;;;;;;;6.60;6.00;;;24.10;99.90;;;;;;5054964;28;20533;-57
2022/08/16 08:10:09;;;;;;;5.80;5.30;;;24.10;99.90;;;;;;5054797;28;20489;-57
2022/08/16 08:12:37;;;;;;;6.67;5.07;;;24.50;99.90;;;;;;5054681;28;20445;-56
2022/08/16 08:15:07;;;;;;;6.97;5.37;;;24.80;99.90;;;;;;5054562;28;20544;-56
2022/08/16 08:17:37;;;;;;;6.73;6.13;;;24.60;99.90;;;;;;5054612;28;20540;-57
2022/08/16 08:20:06;;;;;;;8.53;5.67;;;24.50;99.90;;;;;;5054637;28;20484;-56
2022/08/16 08:22:33;;;;;;;6.80;6.10;;;24.60;99.90;;;;;;5054044;28;20549;-57
2022/08/16 08:25:01;;;;;;;9.37;5.83;;;24.50;99.90;;;;;;5054052;28;20834;-57
2022/08/16 08:27:29;;;;;;;6.87;6.27;;;24.40;99.90;;;;;;5054430;28;20453;-57
2022/08/16 08:29:57;;;;;;;9.93;5.70;;;24.60;99.90;;;;;;5054312;28;20449;-57
2022/08/16 08:32:27;;;;;;;6.13;5.67;;;24.80;99.70;;;;;;5054453;28;20552;-58
2022/08/16 08:34:57;;;;;;;6.53;5.90;;;25.60;99.20;;;;;;5054516;28;20528;-57
2022/08/16 08:37:26;;;;;;;10.67;5.30;;;25.90;98.30;;;;;;5053671;28;20469;-57
2022/08/16 08:39:54;;;;;;;5.90;5.40;;;25.80;97.50;;;;;;5054137;28;20922;-57
2022/08/16 08:42:21;;;;;;;10.97;5.20;;;25.70;97.70;;;;;;5054202;28;20449;-57
2022/08/16 08:44:48;;;;;;;5.80;5.30;;;25.40;98.20;;;;;;5054067;28;20440;-57
2022/08/16 08:47:15;;;;;;;10.03;5.67;;;25.20;98.70;;;;;;5053874;28;20445;-57
2022/08/16 08:49:42;;;;;;;10.13;7.23;;;25.10;98.70;;;;;;5053869;28;20555;-57
2022/08/16 08:52:11;;;;;;;5.90;5.40;;;24.90;98.80;;;;;;5054180;28;20465;-57
2022/08/16 08:54:38;;;;;;;7.80;5.50;;;25.30;98.30;;;;;;5053667;28;20822;-57
2022/08/16 08:57:06;;;;;;;6.17;5.23;;;26.40;96.90;;;;;;5053833;28;21009;-57
2022/08/16 08:59:34;;;;;;;12.83;6.17;;;27.30;95.30;;;;;;5053829;28;20861;-57
2022/08/16 09:02:01;;;;;;;5.30;4.90;;;28.20;94.00;;;;;;5053430;28;20531;-57
2022/08/16 09:04:29;;;;;;;6.40;5.00;;;28.90;91.70;;;;;;5054007;28;20453;-57
2022/08/16 09:06:56;;;;;;;7.87;5.17;;;29.30;90.20;;;;;;5053818;28;20481;-57
2022/08/16 09:09:25;;;;;;;11.03;5.40;;;30.10;87.10;;;;;;5053629;28;20475;-57
2022/08/16 09:11:52;;;;;;;5.50;5.00;;;29.60;83.70;;;;;;5053567;28;20472;-58
2022/08/16 09:14:19;;;;;;;7.30;6.03;;;30.10;84.00;;;;;;5053816;28;20449;-58
2022/08/16 09:16:47;;;;;;;5.93;5.07;;;30.40;82.60;;;;;;5053701;28;20520;-58
2022/08/16 09:19:14;;;;;;;9.03;5.07;;;30.00;80.50;;;;;;5053372;28;20537;-57
2022/08/16 09:21:41;;;;;;;6.27;5.10;;;29.70;80.90;;;;;;5053427;28;20981;-57
2022/08/16 09:24:09;;;;;;;5.93;5.43;;;29.50;82.90;;;;;;5053264;28;20866;-57
2022/08/16 09:26:39;;;;;;;6.93;5.93;;;29.40;82.20;;;;;;5053082;28;20485;-57
2022/08/16 09:29:07;;;;;;;6.07;5.53;;;28.70;82.00;;;;;;5053710;28;20517;-57
2022/08/16 09:31:34;;;;;;;14.77;5.30;;;28.00;83.40;;;;;;5053326;28;20544;-57
2022/08/16 09:34:01;;;;;;;6.60;5.50;;;27.90;85.50;;;;;;5053159;28;20802;-57
2022/08/16 09:36:29;;;;;;;6.00;5.50;;;28.10;83.80;;;;;;5052888;28;20480;-57
2022/08/16 09:38:56;;;;;;;7.43;5.80;;;27.90;86.10;;;;;;5052960;28;20510;-57
2022/08/16 09:41:24;;;;;;;6.70;5.17;;;27.40;84.80;;;;;;5053261;28;20481;-57
2022/08/16 09:43:52;;;;;;;6.97;4.60;;;27.10;86.20;;;;;;5053136;28;20636;-57
2022/08/16 09:46:20;;;;;;;6.00;5.50;;;26.90;86.30;;;;;;5052948;28;20841;-57
2022/08/16 09:48:48;;;;;;;5.63;5.13;;;26.80;86.80;;;;;;5052619;28;20480;-56
2022/08/16 09:51:15;;;;;;;7.30;5.33;;;26.80;88.10;;;;;;5052476;28;21036;-57
2022/08/16 09:53:43;;;;;;;6.67;5.93;;;26.50;87.90;;;;;;5052606;28;21032;-57
2022/08/16 09:56:23;;;;;;;5.87;5.30;;;26.30;87.80;;;;;;5052713;28;20417;-57
2022/08/16 09:58:52;;;;;;;7.57;6.40;;;26.20;90.00;;;;;;5052826;28;20993;-57
2022/08/16 10:01:20;;;;;;;6.40;5.83;;;26.10;90.50;;;;;;5052772;28;20465;-57
2022/08/16 10:03:47;;;;;;;6.47;5.83;;;25.90;90.80;;;;;;5052942;28;20445;-57
2022/08/16 10:06:14;;;;;;;6.60;5.53;;;25.70;90.70;;;;;;5052436;28;20485;-57
2022/08/16 10:08:41;;;;;;;10.23;6.93;;;25.70;91.20;;;;;;5052464;28;20955;-57
2022/08/16 10:13:54;;;;;;;8.53;5.90;;;25.50;92.10;;;;;;5052667;28;20408;-57
2022/08/16 10:16:22;;;;;;;6.20;5.70;;;25.70;91.80;;;;;;5052745;28;20441;-57
2022/08/16 10:18:49;;;;;;;8.37;6.00;;;25.70;91.90;;;;;;5052669;28;20456;-56
2022/08/16 10:21:16;;;;;;;6.83;6.20;;;25.70;92.30;;;;;;5052575;28;20901;-57
2022/08/16 10:23:44;;;;;;;6.23;5.70;;;25.80;91.90;;;;;;5052559;28;20449;-58
2022/08/16 10:26:12;;;;;;;6.47;5.87;;;26.00;91.30;;;;;;5052551;28;20597;-57
2022/08/16 10:28:40;;;;;;;7.60;6.90;;;26.00;91.40;;;;;;5052741;28;20552;-57
2022/08/16 10:31:10;;;;;;;9.93;7.40;;;26.10;91.20;;;;;;5052537;28;20577;-57
2022/08/16 10:33:38;;;;;;;6.30;5.70;;;26.00;90.80;;;;;;5052276;28;20930;-57
2022/08/16 10:36:07;;;;;;;6.80;6.20;;;26.10;91.70;;;;;;5052538;28;20440;-57
2022/08/16 10:38:36;;;;;;;6.97;6.37;;;26.60;91.00;;;;;;5052270;28;20555;-57
2022/08/16 10:41:04;;;;;;;5.83;5.33;;;26.60;90.80;;;;;;5052554;28;20511;-57
2022/08/16 10:43:31;;;;;;;11.90;6.50;;;26.60;90.40;;;;;;5052131;28;20493;-57
2022/08/16 10:45:59;;;;;;;8.23;6.47;;;26.80;90.80;;;;;;5052584;28;20485;-57
2022/08/16 10:48:28;;;;;;;8.57;6.50;;;27.30;88.90;;;;;;5052084;28;20505;-57
2022/08/16 10:50:57;;;;;;;6.33;5.67;;;27.90;87.40;;;;;;5052420;28;20461;-57
2022/08/16 10:53:25;;;;;;;6.67;6.07;;;28.20;86.40;;;;;;5052491;28;20524;-57
2022/08/16 10:55:52;;;;;;;9.17;6.73;;;27.90;86.60;;;;;;5052509;28;20903;-58
2022/08/16 10:58:19;;;;;;;8.30;6.43;;;27.80;86.00;;;;;;5052434;28;20497;-57
2022/08/16 11:00:46;;;;;;;6.17;5.67;;;27.90;85.10;;;;;;5053418;28;20507;-57
2022/08/16 11:03:14;;;;;;;5.97;5.47;;;28.10;85.00;;;;;;5055833;28;20481;-57
2022/08/16 11:05:43;;;;;;;6.80;6.30;;;28.30;83.60;;;;;;5056024;28;20488;-57
2022/08/16 11:08:11;;;;;;;6.80;5.50;;;29.00;81.60;;;;;;5055677;28;20539;-57
2022/08/16 11:10:41;;;;;;;5.40;4.90;;;29.70;79.30;;;;;;5056145;28;20499;-58
2022/08/16 11:13:09;;;;;;;6.30;5.70;;;29.80;78.00;;;;;;5055817;28;20599;-57
2022/08/16 11:15:37;;;;;;;6.93;5.60;;;;;;;;;;5055640;28;20459;-57
2022/08/16 11:18:06;;;;;;;8.00;5.80;;;30.80;74.40;;;;;;5055630;28;20494;-57
2022/08/16 11:20:33;;;;;;;7.30;5.60;;;31.20;74.30;;;;;;5055740;28;20497;-57
2022/08/16 11:23:02;;;;;;;6.47;5.87;;;31.40;71.70;;;;;;5055644;28;20465;-57
2022/08/16 11:25:31;;;;;;;6.73;6.20;;;30.60;73.50;;;;;;5055790;28;20456;-57
2022/08/16 11:28:00;;;;;;;5.90;5.40;;;29.90;73.70;;;;;;5055684;28;20453;-57
2022/08/16 11:30:29;;;;;;;7.00;5.30;;;29.50;75.20;;;;;;5055280;28;20505;-57
2022/08/16 11:32:56;;;;;;;7.73;5.70;;;29.60;74.40;;;;;;5055219;28;20452;-57
2022/08/16 11:35:25;;;;;;;5.23;4.83;;;29.20;74.80;;;;;;5055368;28;20867;-57
2022/08/16 11:37:56;;;;;;;7.10;5.93;;;29.70;75.40;;;;;;5055287;28;20938;-57
2022/08/16 11:40:27;;;;;;;7.13;5.93;;;30.80;72.50;;;;;;5055568;28;20483;-57
2022/08/16 11:42:54;;;;;;;5.70;5.23;;;31.20;71.40;;;;;;5055375;28;20441;-57
2022/08/16 11:45:22;;;;;;;5.70;5.20;;;31.50;68.40;;;;;;5055139;28;20937;-57
2022/08/16 11:47:49;;;;;;;7.37;5.37;;;31.10;67.00;;;;;;5055308;28;20576;-57
2022/08/16 11:50:17;;;;;;;5.63;5.23;;;30.70;68.30;;;;;;5054757;28;20542;-56
2022/08/16 11:52:44;;;;;;;5.20;4.80;;;30.60;68.10;;;;;;5055074;28;20513;-57
2022/08/16 11:55:12;;;;;;;5.77;5.27;;;30.90;67.20;;;;;;5055312;28;20449;-57
2022/08/16 11:57:42;;;;;;;5.40;5.00;;;31.10;66.20;;;;;;5055174;28;20793;-57
2022/08/16 12:00:15;;;;;;;5.10;4.60;;;31.90;66.00;;;;;;5055230;28;20465;-57
2022/08/16 12:02:43;;;;;;;6.20;5.60;;;32.10;65.30;;;;;;5054742;28;20820;-57
2022/08/16 12:05:13;;;;;;;5.60;4.80;;;31.80;64.90;;;;;;5054767;28;20506;-57
2022/08/16 12:07:41;;;;;;;10.43;6.10;;;32.00;64.90;;;;;;5054890;28;20485;-57
2022/08/16 12:10:13;;;;;;;9.50;5.77;;;31.90;64.80;;;;;;5055196;28;20477;-57
2022/08/16 12:12:42;;;;;;;5.50;5.00;;;32.10;63.80;;;;;;5053654;28;20422;-57
2022/08/16 12:15:10;;;;;;;6.23;5.40;;;31.60;63.80;;;;;;5054976;28;20456;-57
2022/08/16 12:17:38;;;;;;;5.83;5.23;;;30.80;64.80;;;;;;5055059;28;20816;-57
2022/08/16 12:20:09;;;;;;;5.73;5.23;;;31.30;64.40;;;;;;5054779;28;20499;-57
2022/08/16 12:22:37;;;;;;;6.27;5.67;;;31.50;64.50;;;;;;5054523;28;20444;-57
2022/08/16 12:25:09;;;;;;;4.57;4.27;;;31.50;63.30;;;;;;5054635;28;20481;-57
2022/08/16 12:27:37;;;;;;;6.93;4.50;;;30.80;62.50;;;;;;5055088;28;20548;-58
2022/08/16 12:30:07;;;;;;;5.03;4.60;;;30.70;63.10;;;;;;5054036;28;20619;-57
2022/08/16 12:32:34;;;;;;;6.87;5.93;;;31.40;61.80;;;;;;5054171;28;20540;-57
2022/08/16 12:35:02;;;;;;;4.83;3.97;;;31.80;61.70;;;;;;5054417;28;20964;-57
2022/08/16 12:37:29;;;;;;;4.87;4.43;;;31.80;61.40;;;;;;5054219;28;20449;-57
2022/08/16 12:40:00;;;;;;;5.50;5.00;;;31.70;60.50;;;;;;5054053;28;20481;-57
2022/08/16 12:42:31;;;;;;;6.47;5.17;;;31.80;61.00;;;;;;5054531;28;20452;-57
2022/08/16 12:44:58;;;;;;;5.00;4.60;;;31.80;59.60;;;;;;5054243;28;20491;-57
2022/08/16 12:50:11;;;;;;;5.10;4.70;;;32.20;59.80;;;;;;5053512;28;20488;-57
2022/08/16 12:52:38;;;;;;;5.20;4.67;;;32.10;59.10;;;;;;5054138;28;20532;-57
2022/08/16 12:55:07;;;;;;;5.90;5.40;;;32.20;58.80;;;;;;5054314;28;20537;-57
2022/08/16 12:57:35;;;;;;;5.27;4.77;;;31.80;58.50;;;;;;5054241;28;20454;-57